createdAt,value
2022-09-06T00:00:03.450Z,0.9
2022-09-06T00:01:11.158Z,1
2022-09-06T00:02:19.859Z,1
2022-09-06T00:03:29.519Z,0.9
2022-09-06T00:04:37.225Z,0.8
2022-09-06T00:05:46.950Z,0.9
2022-09-06T00:06:55.647Z,0.9
2022-09-06T00:08:03.292Z,0.9
2022-09-06T00:09:13.024Z,0.7
2022-09-06T00:10:21.683Z,0.9
2022-09-06T00:11:30.380Z,0.9
2022-09-06T00:12:40.061Z,1.1
2022-09-06T00:13:47.721Z,1.1
2022-09-06T00:14:57.471Z,1
2022-09-06T00:16:06.238Z,0.9
2022-09-06T00:17:15.889Z,0.6
2022-09-06T00:18:24.599Z,0.9
2022-09-06T00:19:32.267Z,0.8
2022-09-06T00:20:41.957Z,0.9
2022-09-06T00:21:49.625Z,0.9
2022-09-06T00:22:59.326Z,0.8
2022-09-06T00:24:09.022Z,1
2022-09-06T00:25:16.674Z,0.9
2022-09-06T00:26:26.339Z,0.8
2022-09-06T00:27:35.993Z,0.9
2022-09-06T00:28:43.674Z,0.8
2022-09-06T00:29:53.333Z,0.8
2022-09-06T00:31:02.077Z,0.9
2022-09-06T00:32:10.677Z,0.7
2022-09-06T00:33:20.371Z,1
2022-09-06T00:34:29.061Z,0.8
2022-09-06T00:35:38.732Z,0.9
2022-09-06T00:36:48.403Z,0.7
2022-09-06T00:37:56.045Z,0.9
2022-09-06T00:39:05.714Z,1.1
2022-09-06T00:40:14.397Z,0.7
2022-09-06T00:41:23.080Z,1.3
2022-09-06T00:42:32.743Z,0.8
2022-09-06T00:43:40.423Z,1.4
2022-09-06T00:44:50.108Z,0.7
2022-09-06T00:45:58.861Z,1
2022-09-06T00:47:07.540Z,0.8
2022-09-06T00:48:17.247Z,1.1
2022-09-06T00:49:24.928Z,0.9
2022-09-06T00:50:33.607Z,0.9
2022-09-06T00:51:43.308Z,0.9
2022-09-06T00:52:52.013Z,0.8
2022-09-06T00:54:01.684Z,0.7
2022-09-06T00:55:10.365Z,1.1
2022-09-06T00:56:18.015Z,0.8
2022-09-06T00:57:27.724Z,1
2022-09-06T00:58:35.380Z,1.2
2022-09-06T00:59:44.041Z,0.8
2022-09-06T01:00:53.727Z,1.2
2022-09-06T01:02:02.549Z,1
2022-09-06T01:03:12.125Z,0.9
2022-09-06T01:04:20.781Z,1
2022-09-06T01:05:28.442Z,1
2022-09-06T01:06:38.121Z,0.9
2022-09-06T01:07:47.788Z,1.2
2022-09-06T01:08:56.587Z,0.8
2022-09-06T01:10:06.285Z,1
2022-09-06T01:11:13.961Z,0.9
2022-09-06T01:12:23.644Z,1
2022-09-06T01:13:33.322Z,0.8
2022-09-06T01:14:41.046Z,1
2022-09-06T01:15:49.741Z,0.9
2022-09-06T01:16:57.408Z,0.8
2022-09-06T01:18:07.084Z,0.8
2022-09-06T01:19:16.733Z,0.9
2022-09-06T01:20:25.484Z,1.1
2022-09-06T01:21:35.151Z,0.9
2022-09-06T01:22:43.832Z,1.1
2022-09-06T01:23:51.502Z,0.8
2022-09-06T01:25:01.180Z,1
2022-09-06T01:26:08.996Z,0.8
2022-09-06T01:27:16.652Z,1.2
2022-09-06T01:28:26.388Z,0.9
2022-09-06T01:29:35.023Z,1.1
2022-09-06T01:30:44.729Z,1
2022-09-06T01:31:53.419Z,0.9
2022-09-06T01:33:02.145Z,1.1
2022-09-06T01:34:11.821Z,0.8
2022-09-06T01:35:19.486Z,1
2022-09-06T01:36:28.162Z,1.1
2022-09-06T01:37:37.883Z,1.2
2022-09-06T01:38:45.554Z,0.8
2022-09-06T01:39:55.265Z,1
2022-09-06T01:41:04.952Z,0.9
2022-09-06T01:42:13.622Z,0.8
2022-09-06T01:43:23.299Z,0.8
2022-09-06T01:44:32.970Z,1
2022-09-06T01:45:41.639Z,1.1
2022-09-06T01:46:51.385Z,1.2
2022-09-06T01:48:00.048Z,1
2022-09-06T01:49:09.750Z,0.9
2022-09-06T01:50:18.481Z,1.2
2022-09-06T01:51:27.182Z,0.9
2022-09-06T01:52:36.869Z,1
2022-09-06T01:53:45.548Z,1
2022-09-06T01:54:55.236Z,0.9
2022-09-06T01:56:04.921Z,1
2022-09-06T01:57:13.615Z,1
2022-09-06T01:58:23.362Z,0.9
2022-09-06T01:59:32.025Z,1.3
2022-09-06T02:00:40.774Z,1
2022-09-06T02:01:50.514Z,1.1
2022-09-06T02:02:58.201Z,0.7
2022-09-06T02:04:07.885Z,0.7
2022-09-06T02:05:17.553Z,1
2022-09-06T02:06:26.256Z,1.4
2022-09-06T02:07:35.927Z,1.7
2022-09-06T02:08:44.573Z,1.4
2022-09-06T02:09:52.228Z,1.5
2022-09-06T02:11:01.887Z,1.4
2022-09-06T02:12:09.576Z,1.6
2022-09-06T02:13:18.273Z,1.8
2022-09-06T02:14:25.931Z,1.6
2022-09-06T02:15:35.608Z,1.6
2022-09-06T02:16:45.305Z,1.6
2022-09-06T02:17:54.928Z,1.5
2022-09-06T02:19:04.604Z,1.7
2022-09-06T02:20:13.308Z,1.6
2022-09-06T02:21:21.021Z,1.6
2022-09-06T02:22:30.706Z,1.6
2022-09-06T02:23:39.417Z,1.3
2022-09-06T02:24:48.100Z,1.4
2022-09-06T02:25:57.779Z,1.4
2022-09-06T02:27:05.476Z,1.3
2022-09-06T02:28:15.118Z,1.1
2022-09-06T02:29:23.939Z,0.9
2022-09-06T02:30:32.700Z,0.8
2022-09-06T02:31:42.319Z,1
2022-09-06T02:32:50.014Z,1
2022-09-06T02:33:58.679Z,0.8
2022-09-06T02:35:08.336Z,0.9
2022-09-06T02:36:18.021Z,0.8
2022-09-06T02:37:27.675Z,1
2022-09-06T02:38:36.343Z,1
2022-09-06T02:39:45.117Z,1.1
2022-09-06T02:40:54.782Z,1
2022-09-06T02:42:02.467Z,0.8
2022-09-06T02:43:11.175Z,0.9
2022-09-06T02:44:20.852Z,0.8
2022-09-06T02:45:29.506Z,0.7
2022-09-06T02:46:39.222Z,0.9
2022-09-06T02:47:47.877Z,1.2
2022-09-06T02:48:55.534Z,0.8
2022-09-06T02:50:05.251Z,0.9
2022-09-06T02:51:13.949Z,0.8
2022-09-06T02:52:21.651Z,1.1
2022-09-06T02:53:31.510Z,0.9
2022-09-06T02:54:40.182Z,1.1
2022-09-06T02:55:49.859Z,1
2022-09-06T02:56:59.534Z,0.7
2022-09-06T02:58:08.226Z,0.9
2022-09-06T02:59:17.908Z,1.1
2022-09-06T03:00:25.584Z,1
2022-09-06T03:01:35.292Z,0.8
2022-09-06T03:02:44.976Z,0.7
2022-09-06T03:03:52.616Z,0.9
2022-09-06T03:05:02.285Z,0.8
2022-09-06T03:06:10.991Z,0.7
2022-09-06T03:07:18.654Z,0.9
2022-09-06T03:08:28.412Z,0.9
2022-09-06T03:09:37.045Z,0.7
2022-09-06T03:10:46.713Z,0.8
2022-09-06T03:11:56.393Z,0.9
2022-09-06T03:13:04.073Z,0.9
2022-09-06T03:14:13.735Z,0.9
2022-09-06T03:15:22.525Z,1
2022-09-06T03:16:32.279Z,1.1
2022-09-06T03:17:41.852Z,0.8
2022-09-06T03:18:50.546Z,1.1
2022-09-06T03:20:00.246Z,0.8
2022-09-06T03:21:09.970Z,1
2022-09-06T03:22:17.655Z,0.8
2022-09-06T03:23:27.323Z,0.9
2022-09-06T03:24:36.009Z,1.2
2022-09-06T03:25:43.655Z,1
2022-09-06T03:26:53.330Z,0.7
2022-09-06T03:28:01.134Z,0.8
2022-09-06T03:29:09.777Z,0.7
2022-09-06T03:30:19.455Z,0.9
2022-09-06T03:31:28.112Z,1.1
2022-09-06T03:32:37.823Z,0.7
2022-09-06T03:33:47.600Z,1
2022-09-06T03:34:55.250Z,0.7
2022-09-06T03:36:04.921Z,0.8
2022-09-06T03:37:12.574Z,0.7
2022-09-06T03:38:22.377Z,0.9
2022-09-06T03:39:32.042Z,0.9
2022-09-06T03:40:40.665Z,0.9
2022-09-06T03:41:50.376Z,1
2022-09-06T03:42:59.028Z,0.9
2022-09-06T03:44:08.773Z,1
2022-09-06T03:45:18.441Z,1.3
2022-09-06T03:46:26.181Z,1
2022-09-06T03:47:34.828Z,1
2022-09-06T03:48:44.479Z,1.1
2022-09-06T03:49:52.174Z,1.1
2022-09-06T03:51:01.920Z,1.3
2022-09-06T03:52:10.603Z,1.1
2022-09-06T03:53:18.351Z,1.1
2022-09-06T03:54:28.059Z,1
2022-09-06T03:55:36.774Z,0.9
2022-09-06T03:56:44.422Z,1.3
2022-09-06T03:57:54.086Z,1.2
2022-09-06T03:59:02.832Z,1.2
2022-09-06T04:00:12.489Z,1.4
2022-09-06T04:01:20.292Z,1.2
2022-09-06T04:02:28.891Z,1.2
2022-09-06T04:03:38.544Z,1
2022-09-06T04:04:47.252Z,1.1
2022-09-06T04:05:55.951Z,1.1
2022-09-06T04:07:04.624Z,0.8
2022-09-06T04:08:12.275Z,0.9
2022-09-06T04:09:21.940Z,0.9
2022-09-06T04:10:30.579Z,0.8
2022-09-06T04:11:40.639Z,0.9
2022-09-06T04:12:49.970Z,0.8
2022-09-06T04:13:59.635Z,0.9
2022-09-06T04:15:09.311Z,1
2022-09-06T04:16:16.992Z,0.9
2022-09-06T04:17:26.704Z,0.6
2022-09-06T04:18:36.429Z,1
2022-09-06T04:19:46.100Z,1.1
2022-09-06T04:20:55.777Z,1
2022-09-06T04:22:04.435Z,1
2022-09-06T04:23:13.161Z,0.9
2022-09-06T04:24:22.863Z,0.8
2022-09-06T04:25:30.639Z,0.8
2022-09-06T04:26:39.352Z,1
2022-09-06T04:27:49.028Z,1
2022-09-06T04:28:57.692Z,0.9
2022-09-06T04:30:07.377Z,0.9
2022-09-06T04:31:16.032Z,0.7
2022-09-06T04:32:23.718Z,0.6
2022-09-06T04:33:33.369Z,0.8
2022-09-06T04:34:43.043Z,0.8
2022-09-06T04:35:50.908Z,0.8
2022-09-06T04:37:00.548Z,0.6
2022-09-06T04:38:08.218Z,1
2022-09-06T04:39:17.905Z,1
2022-09-06T04:40:27.596Z,0.8
2022-09-06T04:41:35.293Z,0.9
2022-09-06T04:42:43.951Z,0.8
2022-09-06T04:43:51.633Z,1.1
2022-09-06T04:45:00.333Z,0.9
2022-09-06T04:46:10.014Z,0.9
2022-09-06T04:47:18.705Z,1
2022-09-06T04:48:28.594Z,1
2022-09-06T04:49:37.064Z,0.8
2022-09-06T04:50:44.707Z,1.1
2022-09-06T04:51:54.390Z,0.7
2022-09-06T04:53:02.119Z,0.9
2022-09-06T04:54:11.819Z,1
2022-09-06T04:55:21.482Z,0.7
2022-09-06T04:56:30.170Z,0.8
2022-09-06T04:57:43.713Z,0.8
2022-09-06T04:58:48.591Z,0.8
2022-09-06T04:59:58.350Z,0.9
2022-09-06T05:01:08.126Z,0.9
2022-09-06T05:02:16.803Z,0.8
2022-09-06T05:03:25.403Z,0.9
2022-09-06T05:04:35.079Z,1.1
2022-09-06T05:05:42.722Z,0.5
2022-09-06T05:06:52.405Z,0.7
2022-09-06T05:08:02.087Z,0.8
2022-09-06T05:09:11.758Z,0.8
2022-09-06T05:10:20.461Z,0.7
2022-09-06T05:11:30.168Z,1.1
2022-09-06T05:12:43.554Z,1
2022-09-06T05:13:47.539Z,0.6
2022-09-06T05:14:57.208Z,1.1
2022-09-06T05:16:06.108Z,0.8
2022-09-06T05:17:15.697Z,0.9
2022-09-06T05:18:24.383Z,1
2022-09-06T05:19:33.083Z,0.6
2022-09-06T05:20:42.748Z,1.1
2022-09-06T05:21:52.465Z,0.9
2022-09-06T05:23:01.154Z,0.8
2022-09-06T05:24:10.854Z,0.9
2022-09-06T05:25:19.524Z,0.9
2022-09-06T05:26:29.241Z,0.9
2022-09-06T05:27:38.943Z,1.1
2022-09-06T05:28:48.603Z,1.1
2022-09-06T05:29:58.285Z,0.9
2022-09-06T05:31:06.976Z,1
2022-09-06T05:32:15.649Z,1.1
2022-09-06T05:33:25.383Z,1.2
2022-09-06T05:34:33.069Z,1.1
2022-09-06T05:35:41.741Z,1
2022-09-06T05:36:51.400Z,0.9
2022-09-06T05:38:01.057Z,1
2022-09-06T05:39:10.886Z,0.7
2022-09-06T05:40:19.566Z,0.9
2022-09-06T05:41:28.252Z,1
2022-09-06T05:42:37.928Z,0.9
2022-09-06T05:43:47.622Z,1.1
2022-09-06T05:44:57.339Z,0.9
2022-09-06T05:46:07.078Z,0.7
2022-09-06T05:47:14.658Z,1
2022-09-06T05:48:24.337Z,0.9
2022-09-06T05:49:33.008Z,1.1
2022-09-06T05:50:40.761Z,0.9
2022-09-06T05:51:50.423Z,1.7
2022-09-06T05:52:59.150Z,1
2022-09-06T05:54:08.843Z,1.3
2022-09-06T05:55:17.496Z,0.9
2022-09-06T05:56:25.191Z,0.8
2022-09-06T05:57:34.856Z,0.7
2022-09-06T05:58:43.507Z,1
2022-09-06T05:59:51.166Z,0.8
2022-09-06T06:01:00.891Z,0.7
2022-09-06T06:02:10.566Z,1.2
2022-09-06T06:03:19.245Z,1.1
2022-09-06T06:04:28.934Z,0.7
2022-09-06T06:05:36.645Z,0.9
2022-09-06T06:06:46.327Z,0.8
2022-09-06T06:07:56.014Z,0.9
2022-09-06T06:09:05.685Z,0.8
2022-09-06T06:10:14.332Z,1.3
2022-09-06T06:11:22.005Z,1
2022-09-06T06:12:30.662Z,1
2022-09-06T06:13:39.368Z,1.2
2022-09-06T06:14:48.095Z,1
2022-09-06T06:15:57.797Z,1
2022-09-06T06:17:06.401Z,0.9
2022-09-06T06:18:16.055Z,0.8
2022-09-06T06:19:24.831Z,0.7
2022-09-06T06:20:32.486Z,0.7
2022-09-06T06:21:42.162Z,0.8
2022-09-06T06:22:49.822Z,0.9
2022-09-06T06:23:58.521Z,0.9
2022-09-06T06:25:08.185Z,0.8
2022-09-06T06:26:17.856Z,0.6
2022-09-06T06:27:27.573Z,0.7
2022-09-06T06:28:36.257Z,0.5
2022-09-06T06:29:43.913Z,0.6
2022-09-06T06:30:53.683Z,0.6
2022-09-06T06:32:01.401Z,0.5
2022-09-06T06:33:10.050Z,0.8
2022-09-06T06:34:19.698Z,0.6
2022-09-06T06:35:28.362Z,0.7
2022-09-06T06:36:38.080Z,0.8
2022-09-06T06:37:46.738Z,1.3
2022-09-06T06:38:54.407Z,0.8
2022-09-06T06:40:04.122Z,0.5
2022-09-06T06:41:12.724Z,0.7
2022-09-06T06:42:21.438Z,0.5
2022-09-06T06:43:31.101Z,0.7
2022-09-06T06:44:39.788Z,0.7
2022-09-06T06:45:49.478Z,0.6
2022-09-06T06:46:58.099Z,0.6
2022-09-06T06:48:06.821Z,0.7
2022-09-06T06:49:16.547Z,0.5
2022-09-06T06:50:24.209Z,0.2
2022-09-06T06:51:32.887Z,0.5
2022-09-06T06:52:42.556Z,0.5
2022-09-06T06:53:52.243Z,0.4
2022-09-06T06:55:01.924Z,0.4
2022-09-06T06:56:10.594Z,0.4
2022-09-06T06:57:19.265Z,0.2
2022-09-06T06:58:29.113Z,0.3
2022-09-06T06:59:36.628Z,0.5
2022-09-06T07:00:45.325Z,0.5
2022-09-06T07:01:55.063Z,0.4
2022-09-06T07:03:03.615Z,0.6
2022-09-06T07:04:12.321Z,0.4
2022-09-06T07:07:43.292Z,0.8
2022-09-06T07:08:50.959Z,0.4
2022-09-06T07:11:11.285Z,0.6
2022-09-06T07:12:19.967Z,0.5
2022-09-06T07:13:29.640Z,0.6
2022-09-06T07:14:39.311Z,0.6
2022-09-06T07:15:47.014Z,0.5
2022-09-06T07:16:56.718Z,0.6
2022-09-06T07:18:04.364Z,0.4
2022-09-06T07:20:24.731Z,0.4
2022-09-06T07:21:37.450Z,0.6
2022-09-06T07:22:42.969Z,0.4
2022-09-06T07:24:08.603Z,0.3
2022-09-06T07:25:02.288Z,0.5
2022-09-06T07:26:11.949Z,0.3
2022-09-06T07:28:32.304Z,0.3
2022-09-06T07:29:41.963Z,0.3
2022-09-06T07:30:50.628Z,0.2
2022-09-06T07:32:15.711Z,0.4
2022-09-06T07:33:10.952Z,0.4
2022-09-06T07:34:19.635Z,0.3
2022-09-06T07:35:29.302Z,0.4
2022-09-06T07:36:38.970Z,0.5
2022-09-06T07:37:46.664Z,0.2
2022-09-06T07:38:56.328Z,0.4
2022-09-06T07:40:04.176Z,0.4
2022-09-06T07:41:13.734Z,0.3
2022-09-06T07:42:23.446Z,0.3
2022-09-06T07:43:31.132Z,0.4
2022-09-06T07:44:40.821Z,0.3
2022-09-06T07:45:49.659Z,0.2
2022-09-06T07:48:10.036Z,0.2
2022-09-06T07:49:17.716Z,0.4
2022-09-06T07:51:38.138Z,0.4
2022-09-06T07:53:21.874Z,0.2
2022-09-06T07:54:13.179Z,0.3
2022-09-06T07:55:08.235Z,0.2
2022-09-06T07:56:16.896Z,0.2
2022-09-06T07:57:26.608Z,0.2
2022-09-06T07:58:35.358Z,0.2
2022-09-06T07:59:44.021Z,0.1
2022-09-06T08:00:53.812Z,0.5
2022-09-06T08:02:01.488Z,0.6
2022-09-06T08:03:11.114Z,0.5
2022-09-06T08:04:20.782Z,0.3
2022-09-06T08:09:01.384Z,0.3
2022-09-06T08:10:09.043Z,0.4
2022-09-06T08:11:18.734Z,0.3
2022-09-06T08:12:28.449Z,0.2
2022-09-06T08:13:37.126Z,0.4
2022-09-06T08:14:46.852Z,0.2
2022-09-06T08:15:56.574Z,0.4
2022-09-06T08:17:05.210Z,0.3
2022-09-06T08:18:14.883Z,0.4
2022-09-06T08:19:22.550Z,0.6
2022-09-06T08:20:32.264Z,0.5
2022-09-06T08:21:41.930Z,0.3
2022-09-06T08:22:50.602Z,0.3
2022-09-06T08:24:00.279Z,0.3
2022-09-06T08:25:08.936Z,0.4
2022-09-06T08:26:16.669Z,0.3
2022-09-06T08:27:26.340Z,0.4
2022-09-06T08:28:35.000Z,0.3
2022-09-06T08:29:43.689Z,0.5
2022-09-06T08:30:53.367Z,0.4
2022-09-06T08:32:03.143Z,0.4
2022-09-06T08:33:12.742Z,0.6
2022-09-06T08:34:21.452Z,0.7
2022-09-06T08:35:29.139Z,0.5
2022-09-06T08:36:38.827Z,0.4
2022-09-06T08:37:47.543Z,0.3
2022-09-06T08:38:56.266Z,0.2
2022-09-06T08:40:05.983Z,0.5
2022-09-06T08:41:13.599Z,0.1
2022-09-06T08:42:23.251Z,0.2
2022-09-06T08:43:31.970Z,0.1
2022-09-06T08:44:57.411Z,0.1
2022-09-06T08:45:53.833Z,0.2
2022-09-06T08:47:02.102Z,0.2
2022-09-06T08:48:10.741Z,0.3
2022-09-06T08:49:20.455Z,0.2
2022-09-06T08:50:29.137Z,0.1
2022-09-06T08:51:38.779Z,0.2
2022-09-06T08:53:13.556Z,0.2
2022-09-06T08:53:57.038Z,0.1
2022-09-06T08:55:06.734Z,0.2
2022-09-06T08:56:15.405Z,0.2
2022-09-06T08:57:24.073Z,0.2
2022-09-06T08:58:32.750Z,0.1
2022-09-06T08:59:41.411Z,0.2
2022-09-06T09:00:51.340Z,0.1
2022-09-06T09:01:59.961Z,0.1
2022-09-06T09:03:10.238Z,0.2
2022-09-06T09:04:19.242Z,0.1
2022-09-06T09:05:26.924Z,0.2
2022-09-06T09:06:35.659Z,0.1
2022-09-06T09:07:45.307Z,0.2
2022-09-06T09:08:54.993Z,0.1
2022-09-06T09:10:04.665Z,0.2
2022-09-06T09:11:13.351Z,0.2
2022-09-06T09:12:23.074Z,0.1
2022-09-06T09:13:32.721Z,0.1
2022-09-06T09:14:40.361Z,0.2
2022-09-06T09:15:50.049Z,0.2
2022-09-06T09:16:59.812Z,0.2
2022-09-06T09:18:09.517Z,0.1
2022-09-06T09:19:19.204Z,0.1
2022-09-06T09:20:27.866Z,0.1
2022-09-06T09:21:36.537Z,0.1
2022-09-06T09:22:46.236Z,0.1
2022-09-06T09:23:55.979Z,0.2
2022-09-06T09:25:05.686Z,0.1
2022-09-06T09:26:15.339Z,0
2022-09-06T09:27:23.003Z,0.1
2022-09-06T09:28:32.688Z,0.1
2022-09-06T09:30:53.137Z,0.1
2022-09-06T09:32:01.040Z,0.1
2022-09-06T09:33:08.683Z,0.1
2022-09-06T09:34:17.339Z,0.2
2022-09-06T09:35:27.115Z,0.1
2022-09-06T09:36:33.786Z,0.1
2022-09-06T09:38:53.196Z,0.2
2022-09-06T09:40:01.997Z,0.1
2022-09-06T09:41:11.643Z,0
2022-09-06T09:42:19.319Z,0.1
2022-09-06T09:43:27.993Z,0.2
2022-09-06T09:44:37.673Z,0.4
2022-09-06T09:45:46.364Z,0.1
2022-09-06T09:46:56.168Z,0.2
2022-09-06T09:48:04.780Z,0.2
2022-09-06T09:49:12.473Z,0.2
2022-09-06T09:50:22.183Z,0.1
2022-09-06T09:51:31.915Z,0.3
2022-09-06T09:52:40.663Z,0.1
2022-09-06T09:53:50.319Z,0.2
2022-09-06T09:54:58.001Z,0.1
2022-09-06T09:56:07.687Z,0.1
2022-09-06T09:57:17.406Z,0.1
2022-09-06T09:58:25.106Z,0.1
2022-09-06T09:59:34.778Z,0.2
2022-09-06T10:00:43.561Z,0.1
2022-09-06T10:01:53.152Z,0.2
2022-09-06T10:03:02.861Z,0.1
2022-09-06T10:05:23.193Z,0.2
2022-09-06T10:07:43.522Z,0.1
2022-09-06T10:08:53.204Z,0.1
2022-09-06T10:10:02.928Z,0.2
2022-09-06T10:11:12.642Z,0.1
2022-09-06T10:12:20.316Z,0.2
2022-09-06T10:13:28.981Z,0
2022-09-06T10:14:38.671Z,0.1
2022-09-06T10:15:46.418Z,0.2
2022-09-06T10:16:56.024Z,0.1
2022-09-06T10:18:05.737Z,0.2
2022-09-06T10:19:14.407Z,0.2
2022-09-06T10:20:24.070Z,0.2
2022-09-06T10:21:33.780Z,0.2
2022-09-06T10:22:42.479Z,0.1
2022-09-06T10:25:00.832Z,0.2
2022-09-06T10:26:10.538Z,0.3
2022-09-06T10:27:19.259Z,0.2
2022-09-06T10:28:29.120Z,0.1
2022-09-06T10:29:38.665Z,0.1
2022-09-06T10:30:46.327Z,0.1
2022-09-06T10:31:55.000Z,0.3
2022-09-06T10:33:04.798Z,0.2
2022-09-06T10:34:13.519Z,0.1
2022-09-06T10:35:23.182Z,0.1
2022-09-06T10:36:31.902Z,0.2
2022-09-06T10:37:40.559Z,0.1
2022-09-06T10:38:50.277Z,0.1
2022-09-06T10:39:57.987Z,0.3
2022-09-06T10:41:06.615Z,0.1
2022-09-06T10:42:16.288Z,0.3
2022-09-06T10:43:24.962Z,0.1
2022-09-06T10:44:34.667Z,0.1
2022-09-06T10:45:43.330Z,0.1
2022-09-06T10:46:53.038Z,0.2
2022-09-06T10:48:02.687Z,0.1
2022-09-06T10:49:12.349Z,0.2
2022-09-06T10:50:22.102Z,0.1
2022-09-06T10:51:31.753Z,0
2022-09-06T10:52:39.481Z,0.2
2022-09-06T10:53:49.176Z,0.1
2022-09-06T10:54:58.859Z,0.2
2022-09-06T10:56:06.550Z,0.3
2022-09-06T10:58:25.895Z,0.1
2022-09-06T10:59:35.844Z,0.1
2022-09-06T11:00:45.175Z,0.1
2022-09-06T11:01:53.942Z,0.1
2022-09-06T11:04:14.225Z,0.2
2022-09-06T11:05:39.371Z,0.1
2022-09-06T11:06:34.547Z,0.1
2022-09-06T11:08:57.701Z,0
2022-09-06T11:10:02.556Z,0
2022-09-06T11:11:11.227Z,0.1
2022-09-06T11:12:20.883Z,0.1
2022-09-06T11:13:29.556Z,0.4
2022-09-06T11:14:38.229Z,0.2
2022-09-06T11:15:47.927Z,0.2
2022-09-06T11:16:56.608Z,0.1
2022-09-06T11:18:05.252Z,0.1
2022-09-06T11:19:14.999Z,0.1
2022-09-06T11:20:24.435Z,0
2022-09-06T11:21:34.366Z,0.1
2022-09-06T11:22:43.041Z,0.2
2022-09-06T11:23:51.683Z,0.1
2022-09-06T11:25:01.365Z,0.2
2022-09-06T11:26:10.075Z,0.1
2022-09-06T11:27:18.713Z,0.1
2022-09-06T11:28:28.357Z,0.3
2022-09-06T11:29:36.033Z,0
2022-09-06T11:30:45.847Z,0.2
2022-09-06T11:33:04.135Z,0
2022-09-06T11:34:13.780Z,0.2
2022-09-06T11:35:21.449Z,0.1
2022-09-06T11:36:30.260Z,0.1
2022-09-06T11:37:39.975Z,0.1
2022-09-06T11:38:49.660Z,0.3
2022-09-06T11:41:12.045Z,0.2
2022-09-06T11:42:19.685Z,0.2
2022-09-06T11:43:29.438Z,0
2022-09-06T11:44:38.058Z,0
2022-09-06T11:45:46.823Z,0.1
2022-09-06T11:46:56.526Z,0.2
2022-09-06T11:48:04.174Z,0.1
2022-09-06T11:49:13.878Z,0.1
2022-09-06T11:50:22.531Z,0.2
2022-09-06T11:51:30.210Z,0.2
2022-09-06T11:52:39.861Z,0.1
2022-09-06T11:53:47.660Z,0.4
2022-09-06T11:54:56.322Z,0.1
2022-09-06T11:56:05.970Z,0.1
2022-09-06T11:57:13.634Z,0.1
2022-09-06T11:58:23.309Z,0.2
2022-09-06T11:59:32.133Z,0.3
2022-09-06T12:00:39.788Z,0
2022-09-06T12:01:49.453Z,0.2
2022-09-06T12:04:10.343Z,0.1
2022-09-06T12:05:17.508Z,0.2
2022-09-06T12:06:26.174Z,0.3
2022-09-06T12:07:35.871Z,0.1
2022-09-06T12:08:44.534Z,0.2
2022-09-06T12:09:54.217Z,0.3
2022-09-06T12:11:03.909Z,0.1
2022-09-06T12:12:16.977Z,0.2
2022-09-06T12:13:24.259Z,0.1
2022-09-06T12:14:33.926Z,0.2
2022-09-06T12:15:42.679Z,0.1
2022-09-06T12:16:52.306Z,0.1
2022-09-06T12:18:00.967Z,0.2
2022-09-06T12:19:10.659Z,0.1
2022-09-06T12:20:19.334Z,0.2
2022-09-06T12:21:27.001Z,0.1
2022-09-06T12:22:36.695Z,0.4
2022-09-06T12:23:44.359Z,0.1
2022-09-06T12:24:53.025Z,0.2
2022-09-06T12:26:02.681Z,0
2022-09-06T12:27:10.336Z,0.1
2022-09-06T12:28:20.068Z,0
2022-09-06T12:29:28.709Z,0
2022-09-06T12:30:36.379Z,0.2
2022-09-06T12:31:46.095Z,0.2
2022-09-06T12:32:54.720Z,0.1
2022-09-06T12:34:03.441Z,0.2
2022-09-06T12:36:21.783Z,0.1
2022-09-06T12:37:31.477Z,0.2
2022-09-06T12:38:41.121Z,0.1
2022-09-06T12:39:49.937Z,0.1
2022-09-06T12:40:59.571Z,0.1
2022-09-06T12:42:08.222Z,0.2
2022-09-06T12:43:17.890Z,0.3
2022-09-06T12:44:27.622Z,0.4
2022-09-06T12:45:36.278Z,0.1
2022-09-06T12:46:46.064Z,0.3
2022-09-06T12:47:55.691Z,0.3
2022-09-06T12:49:04.328Z,0.1
2022-09-06T12:50:14.042Z,0.1
2022-09-06T12:51:22.783Z,0
2022-09-06T12:52:31.505Z,0.2
2022-09-06T12:53:41.165Z,0.1
2022-09-06T12:54:48.854Z,0.2
2022-09-06T12:55:58.563Z,0.1
2022-09-06T12:57:07.345Z,0.2
2022-09-06T12:58:16.018Z,0.1
2022-09-06T12:59:25.678Z,0.1
2022-09-06T13:00:34.341Z,0.2
2022-09-06T13:01:43.114Z,0.2
2022-09-06T13:02:52.942Z,0.2
2022-09-06T13:04:02.492Z,0.3
2022-09-06T13:05:13.189Z,0.4
2022-09-06T13:06:26.191Z,0.2
2022-09-06T13:07:30.527Z,0.3
2022-09-06T13:08:40.176Z,0.1
2022-09-06T13:09:47.836Z,0.2
2022-09-06T13:10:56.507Z,0.1
2022-09-06T13:12:06.213Z,0.1
2022-09-06T13:13:15.881Z,0.3
2022-09-06T13:14:25.583Z,0.1
2022-09-06T13:15:35.276Z,0.1
2022-09-06T13:16:42.904Z,0.3
2022-09-06T13:17:52.549Z,0.2
2022-09-06T13:19:01.211Z,0.3
2022-09-06T13:20:09.902Z,0.2
2022-09-06T13:21:19.582Z,0.2
2022-09-06T13:22:28.266Z,0.3
2022-09-06T13:23:37.918Z,0.1
2022-09-06T13:24:47.828Z,0.1
2022-09-06T13:25:56.273Z,0.2
2022-09-06T13:27:05.931Z,0.4
2022-09-06T13:28:13.591Z,0.2
2022-09-06T13:29:23.292Z,0.2
2022-09-06T13:30:32.965Z,0.3
2022-09-06T13:31:42.666Z,0.1
2022-09-06T13:32:52.305Z,0.1
2022-09-06T13:34:00.947Z,0.2
2022-09-06T13:35:08.599Z,0.1
2022-09-06T13:36:18.283Z,0.3
2022-09-06T13:37:27.972Z,0.2
2022-09-06T13:38:36.631Z,0.6
2022-09-06T13:39:46.415Z,0.5
2022-09-06T13:41:14.819Z,0.3
2022-09-06T13:42:06.582Z,0.3
2022-09-06T13:43:16.354Z,0.1
2022-09-06T13:44:25.041Z,0.3
2022-09-06T13:45:34.686Z,0.2
2022-09-06T13:46:42.408Z,0.1
2022-09-06T13:47:51.007Z,0.1
2022-09-06T13:49:00.719Z,0.3
2022-09-06T13:50:08.430Z,0.3
2022-09-06T13:51:18.140Z,0.1
2022-09-06T13:52:27.823Z,0.2
2022-09-06T13:53:35.542Z,0
2022-09-06T13:54:45.242Z,0.1
2022-09-06T13:55:53.926Z,0.4
2022-09-06T13:57:02.627Z,0.1
2022-09-06T13:58:12.269Z,0.1
2022-09-06T13:59:20.922Z,0.1
2022-09-06T14:00:30.627Z,0.3
2022-09-06T14:01:40.390Z,0.1
2022-09-06T14:02:50.008Z,0.2
2022-09-06T14:03:58.612Z,0.3
2022-09-06T14:05:06.259Z,0.2
2022-09-06T14:06:16.074Z,0.2
2022-09-06T14:07:24.754Z,0.1
2022-09-06T14:08:49.510Z,0.1
2022-09-06T14:09:45.151Z,0.3
2022-09-06T14:10:52.861Z,0.3
2022-09-06T14:12:02.546Z,0.1
2022-09-06T14:13:11.199Z,0.1
2022-09-06T14:14:19.868Z,0.2
2022-09-06T14:15:28.589Z,0.3
2022-09-06T14:16:36.199Z,0.1
2022-09-06T14:17:44.918Z,0.5
2022-09-06T14:18:54.565Z,0.3
2022-09-06T14:20:02.233Z,0.1
2022-09-06T14:21:11.893Z,0.4
2022-09-06T14:22:20.541Z,0
2022-09-06T14:23:29.218Z,0.2
2022-09-06T14:24:38.927Z,0.2
2022-09-06T14:25:46.624Z,0.5
2022-09-06T14:26:56.325Z,0.3
2022-09-06T14:28:06.038Z,0.1
2022-09-06T14:29:14.714Z,0.1
2022-09-06T14:30:24.383Z,0.4
2022-09-06T14:31:33.051Z,0.1
2022-09-06T14:32:40.688Z,0.2
2022-09-06T14:33:50.384Z,0.3
2022-09-06T14:34:58.093Z,0.4
2022-09-06T14:36:06.764Z,0.3
2022-09-06T14:37:16.398Z,0.1
2022-09-06T14:38:25.078Z,0.1
2022-09-06T14:39:34.812Z,0.3
2022-09-06T14:40:43.428Z,0.1
2022-09-06T14:41:52.102Z,0.2
2022-09-06T14:43:01.827Z,0.2
2022-09-06T14:44:09.477Z,0.1
2022-09-06T14:45:18.174Z,0.3
2022-09-06T14:46:28.002Z,0.2
2022-09-06T14:47:36.589Z,0.3
2022-09-06T14:48:46.261Z,0.1
2022-09-06T14:49:55.978Z,0.2
2022-09-06T14:51:04.643Z,0.2
2022-09-06T14:52:13.337Z,0.4
2022-09-06T14:53:39.176Z,0.5
2022-09-06T14:54:33.699Z,0.3
2022-09-06T14:55:42.355Z,0.1
2022-09-06T14:56:51.021Z,0.1
2022-09-06T14:58:00.724Z,0
2022-09-06T14:59:09.410Z,0.1
2022-09-06T15:00:18.057Z,0.1
2022-09-06T15:01:27.794Z,0.1
2022-09-06T15:02:37.423Z,0.2
2022-09-06T15:03:46.056Z,0.3
2022-09-06T15:04:55.748Z,0.8
2022-09-06T15:06:05.428Z,1.8
2022-09-06T15:07:15.099Z,1.2
2022-09-06T15:08:24.787Z,1.3
2022-09-06T15:09:32.495Z,0.4
2022-09-06T15:10:42.163Z,0.4
2022-09-06T15:11:49.829Z,0.2
2022-09-06T15:12:59.517Z,0.3
2022-09-06T15:14:09.186Z,0.1
2022-09-06T15:15:16.924Z,0.3
2022-09-06T15:16:26.634Z,0.2
2022-09-06T15:17:35.298Z,0.2
2022-09-06T15:18:44.031Z,0.2
2022-09-06T15:19:53.746Z,0.6
2022-09-06T15:21:02.429Z,0.4
2022-09-06T15:22:11.102Z,0.3
2022-09-06T15:23:27.837Z,0.4
2022-09-06T15:24:30.403Z,0.2
2022-09-06T15:25:40.083Z,0.1
2022-09-06T15:26:48.751Z,0.2
2022-09-06T15:27:57.496Z,0.3
2022-09-06T15:29:07.169Z,0.5
2022-09-06T15:30:16.890Z,0.3
2022-09-06T15:31:25.561Z,0.1
2022-09-06T15:32:35.270Z,0.1
2022-09-06T15:33:44.971Z,0.2
2022-09-06T15:34:54.745Z,0.2
2022-09-06T15:36:04.400Z,0.3
2022-09-06T15:37:12.037Z,0.5
2022-09-06T15:38:21.753Z,0.5
2022-09-06T15:39:29.446Z,0.1
2022-09-06T15:40:38.124Z,0.2
2022-09-06T15:41:47.788Z,0.2
2022-09-06T15:42:55.471Z,0.2
2022-09-06T15:44:05.193Z,0.2
2022-09-06T15:45:14.862Z,0.4
2022-09-06T15:46:23.567Z,0.5
2022-09-06T15:47:33.284Z,0.4
2022-09-06T15:48:40.978Z,0.2
2022-09-06T15:49:50.676Z,0.5
2022-09-06T15:51:00.346Z,0.6
2022-09-06T15:52:08.996Z,0.8
2022-09-06T15:53:18.713Z,0.6
2022-09-06T15:54:28.387Z,0.8
2022-09-06T15:55:41.513Z,0.7
2022-09-06T15:56:48.865Z,0.7
2022-09-06T15:57:57.529Z,1.6
2022-09-06T15:59:07.228Z,0.5
2022-09-06T16:00:14.948Z,1.1
2022-09-06T16:01:23.768Z,1.4
2022-09-06T16:02:33.390Z,0.9
2022-09-06T16:03:42.068Z,0.4
2022-09-06T16:04:51.836Z,0.4
2022-09-06T16:07:10.154Z,0.4
2022-09-06T16:08:19.871Z,0.3
2022-09-06T16:09:28.535Z,0.3
2022-09-06T16:10:38.244Z,0.3
2022-09-06T16:11:47.951Z,0.1
2022-09-06T16:12:55.741Z,0.4
2022-09-06T16:14:05.418Z,0.6
2022-09-06T16:15:14.077Z,0.3
2022-09-06T16:16:22.890Z,0.3
2022-09-06T16:17:32.406Z,0.3
2022-09-06T16:18:41.127Z,0.5
2022-09-06T16:19:50.793Z,0.4
2022-09-06T16:21:00.427Z,0.4
2022-09-06T16:22:08.122Z,0.1
2022-09-06T16:23:17.799Z,0.3